createdAt,value
2018-04-22T00:02:25.210Z,16.97
2018-04-22T00:04:54.525Z,17.43
2018-04-22T00:07:23.695Z,16.10
2018-04-22T00:09:52.907Z,16.43
2018-04-22T00:12:22.141Z,17.47
2018-04-22T00:14:51.414Z,17.40
2018-04-22T00:17:20.649Z,16.43
2018-04-22T00:19:49.897Z,16.33
2018-04-22T00:22:19.161Z,16.10
2018-04-22T00:24:48.382Z,17.03
2018-04-22T00:27:17.604Z,16.80
2018-04-22T00:29:47.581Z,17.43
2018-04-22T00:32:16.745Z,18.10
2018-04-22T00:34:45.932Z,17.70
2018-04-22T00:37:15.146Z,16.03
2018-04-22T00:39:44.353Z,16.67
2018-04-22T00:42:13.597Z,17.67
2018-04-22T00:44:43.708Z,15.87
2018-04-22T00:47:13.082Z,17.07
2018-04-22T00:49:42.540Z,17.33
2018-04-22T00:52:11.793Z,16.97
2018-04-22T00:54:41.025Z,17.57
2018-04-22T00:57:10.235Z,17.37
2018-04-22T00:59:39.491Z,16.87
2018-04-22T01:02:08.708Z,18.60
2018-04-22T01:04:38.682Z,18.50
2018-04-22T01:07:07.810Z,16.73
2018-04-22T01:09:37.091Z,17.63
2018-04-22T01:12:06.329Z,18.43
2018-04-22T01:14:36.430Z,16.80
2018-04-22T01:17:05.596Z,17.33
2018-04-22T01:19:34.936Z,18.30
2018-04-22T01:22:04.218Z,17.07
2018-04-22T01:24:33.417Z,18.33
2018-04-22T01:27:02.689Z,17.53
2018-04-22T01:29:31.952Z,18.80
2018-04-22T01:32:01.205Z,17.50
2018-04-22T01:34:30.477Z,18.83
2018-04-22T01:36:59.715Z,18.17
2018-04-22T01:39:29.780Z,20.13
2018-04-22T01:41:58.995Z,18.30
2018-04-22T01:44:28.199Z,18.77
2018-04-22T01:46:57.456Z,17.83
2018-04-22T01:49:27.066Z,16.50
2018-04-22T01:51:56.312Z,17.80
2018-04-22T01:54:25.470Z,17.90
2018-04-22T01:56:54.715Z,17.47
2018-04-22T01:59:23.937Z,19.00
2018-04-22T02:01:53.249Z,17.60
2018-04-22T02:04:22.495Z,18.67
2018-04-22T02:06:51.698Z,17.60
2018-04-22T02:09:21.161Z,18.83
2018-04-22T02:11:51.120Z,18.23
2018-04-22T02:14:20.354Z,17.87
2018-04-22T02:16:49.605Z,19.97
2018-04-22T02:19:18.828Z,18.47
2018-04-22T02:21:48.118Z,17.20
2018-04-22T02:24:17.331Z,16.90
2018-04-22T02:26:46.548Z,17.83
2018-04-22T02:29:15.794Z,16.20
2018-04-22T02:31:45.038Z,17.80
2018-04-22T02:34:14.225Z,18.37
2018-04-22T02:36:43.440Z,17.93
2018-04-22T02:39:12.639Z,17.13
2018-04-22T02:41:41.873Z,20.17
2018-04-22T02:44:11.155Z,18.57
2018-04-22T02:46:40.486Z,19.77
2018-04-22T02:49:09.835Z,18.47
2018-04-22T02:51:39.225Z,19.17
2018-04-22T02:54:08.595Z,17.30
2018-04-22T02:56:37.940Z,19.37
2018-04-22T02:59:07.977Z,18.90
2018-04-22T03:01:37.340Z,19.83
2018-04-22T03:04:06.655Z,19.33
2018-04-22T03:06:35.880Z,18.23
2018-04-22T03:09:05.891Z,19.17
2018-04-22T03:11:35.144Z,19.30
2018-04-22T03:14:04.417Z,18.53
2018-04-22T03:16:33.679Z,20.57
2018-04-22T03:19:03.664Z,19.73
2018-04-22T03:21:32.953Z,19.63
2018-04-22T03:24:02.209Z,19.63
2018-04-22T03:26:32.380Z,20.77
2018-04-22T03:29:01.628Z,21.87
2018-04-22T03:31:30.845Z,23.43
2018-04-22T03:34:00.076Z,21.07
2018-04-22T03:36:29.287Z,20.80
2018-04-22T03:38:58.508Z,21.67
2018-04-22T03:41:28.556Z,21.23
2018-04-22T03:43:57.851Z,21.00
2018-04-22T03:46:27.037Z,20.87
2018-04-22T03:48:56.315Z,22.00
2018-04-22T03:51:25.569Z,21.97
2018-04-22T03:53:54.769Z,22.47
2018-04-22T03:56:24.003Z,22.40
2018-04-22T03:58:53.201Z,22.10
2018-04-22T04:01:22.411Z,19.97
2018-04-22T04:03:51.609Z,21.23
2018-04-22T04:06:20.842Z,20.27
2018-04-22T04:08:50.076Z,20.57
2018-04-22T04:11:19.297Z,21.83
2018-04-22T04:13:48.572Z,21.63
2018-04-22T04:16:17.805Z,20.40
2018-04-22T04:18:59.686Z,21.83
2018-04-22T04:21:40.447Z,20.60
2018-04-22T04:30:20.213Z,21.20
2018-04-22T04:32:50.186Z,19.83
2018-04-22T04:35:19.463Z,20.33
2018-04-22T04:37:48.786Z,20.20
2018-04-22T04:40:18.055Z,19.83
2018-04-22T04:42:47.475Z,16.43
2018-04-22T04:45:16.772Z,19.53
2018-04-22T04:47:46.088Z,18.40
2018-04-22T04:50:15.352Z,17.23
2018-04-22T04:52:45.445Z,19.63
2018-04-22T04:55:15.538Z,18.60
2018-04-22T04:57:44.969Z,17.80
2018-04-22T05:00:14.294Z,19.50
2018-04-22T05:02:43.582Z,17.93
2018-04-22T05:05:12.946Z,16.73
2018-04-22T05:07:42.295Z,18.53
2018-04-22T05:10:12.101Z,19.57
2018-04-22T05:12:42.390Z,18.73
2018-04-22T05:15:11.736Z,19.17
2018-04-22T05:17:41.128Z,19.30
2018-04-22T05:20:10.489Z,18.03
2018-04-22T05:22:39.797Z,18.00
2018-04-22T05:25:10.221Z,18.13
2018-04-22T05:27:40.655Z,17.40
2018-04-22T05:30:10.364Z,18.70
2018-04-22T05:32:40.399Z,17.17
2018-04-22T05:35:09.686Z,16.10
2018-04-22T05:37:38.954Z,16.33
2018-04-22T05:40:08.227Z,16.23
2018-04-22T05:42:38.221Z,17.17
2018-04-22T05:45:07.463Z,17.57
2018-04-22T05:47:36.689Z,16.10
2018-04-22T05:50:05.939Z,17.30
2018-04-22T05:52:35.158Z,16.13
2018-04-22T05:55:04.509Z,18.27
2018-04-22T05:57:33.727Z,19.00
2018-04-22T06:00:02.905Z,16.40
2018-04-22T06:02:44.370Z,17.33
2018-04-22T06:05:20.109Z,16.90
2018-04-22T06:07:52.676Z,16.47
2018-04-22T06:10:26.894Z,16.20
2018-04-22T06:12:56.172Z,17.60
2018-04-22T06:15:26.176Z,18.00
2018-04-22T06:17:56.176Z,16.30
2018-04-22T06:20:25.393Z,16.83
2018-04-22T06:22:55.514Z,19.20
2018-04-22T06:25:24.680Z,16.63
2018-04-22T06:27:53.980Z,16.87
2018-04-22T06:30:23.283Z,17.73
2018-04-22T06:32:52.467Z,17.77
2018-04-22T06:35:21.672Z,19.10
2018-04-22T06:37:50.911Z,16.67
2018-04-22T06:40:20.331Z,17.23
2018-04-22T06:42:49.557Z,20.23
2018-04-22T06:45:18.799Z,19.13
2018-04-22T06:47:48.129Z,18.83
2018-04-22T06:50:18.274Z,18.60
2018-04-22T06:52:47.455Z,20.30
2018-04-22T06:55:17.523Z,17.97
2018-04-22T06:57:46.718Z,18.20
2018-04-22T07:00:15.984Z,19.43
2018-04-22T07:02:45.277Z,17.60
2018-04-22T07:05:15.328Z,19.33
2018-04-22T07:07:44.511Z,16.73
2018-04-22T07:10:13.821Z,17.33
2018-04-22T07:12:43.124Z,18.17
2018-04-22T07:15:12.363Z,18.73
2018-04-22T07:17:41.575Z,17.80
2018-04-22T07:20:11.743Z,17.90
2018-04-22T07:22:40.982Z,17.37
2018-04-22T07:25:11.066Z,17.27
2018-04-22T07:27:40.389Z,15.80
2018-04-22T07:30:09.659Z,15.33
2018-04-22T07:32:38.893Z,15.87
2018-04-22T07:35:08.137Z,15.10
2018-04-22T07:37:37.330Z,15.53
2018-04-22T07:40:06.555Z,15.57
2018-04-22T07:42:35.971Z,14.70
2018-04-22T07:45:05.260Z,15.87
2018-04-22T07:47:34.564Z,15.87
2018-04-22T07:50:03.860Z,15.40
2018-04-22T07:52:33.068Z,14.17
2018-04-22T07:55:02.376Z,14.77
2018-04-22T07:57:31.761Z,14.60
2018-04-22T08:00:00.959Z,13.80
2018-04-22T08:02:30.140Z,13.33
2018-04-22T08:04:59.321Z,13.00
2018-04-22T08:07:28.537Z,12.10
2018-04-22T08:09:57.932Z,11.93
2018-04-22T08:12:27.356Z,12.10
2018-04-22T08:14:56.757Z,10.23
2018-04-22T08:17:26.379Z,11.80
2018-04-22T08:19:55.770Z,11.27
2018-04-22T08:22:24.989Z,10.80
2018-04-22T08:24:54.263Z,10.93
2018-04-22T08:27:23.564Z,10.73
2018-04-22T08:29:54.399Z,11.20
2018-04-22T08:32:23.598Z,10.67
2018-04-22T08:34:52.834Z,9.60
2018-04-22T08:37:22.029Z,9.90
2018-04-22T08:39:51.292Z,9.80
2018-04-22T08:42:20.489Z,9.80
2018-04-22T08:44:49.690Z,9.60
2018-04-22T08:47:18.915Z,9.87
2018-04-22T08:49:48.096Z,9.37
2018-04-22T08:52:17.386Z,9.70
2018-04-22T08:54:46.569Z,9.10
2018-04-22T08:57:15.987Z,9.37
2018-04-22T08:59:45.192Z,8.30
2018-04-22T09:02:14.359Z,9.33
2018-04-22T09:04:43.508Z,8.70
2018-04-22T09:07:12.776Z,9.37
2018-04-22T09:09:42.061Z,8.97
2018-04-22T09:12:11.220Z,8.73
2018-04-22T09:14:40.368Z,7.63
2018-04-22T09:17:09.683Z,8.32
2018-04-22T09:19:38.969Z,8.23
2018-04-22T09:22:08.145Z,8.60
2018-04-22T09:24:37.468Z,8.80
2018-04-22T09:27:06.767Z,8.30
2018-04-22T09:29:35.999Z,9.25
2018-04-22T09:32:05.369Z,8.97
2018-04-22T09:34:34.640Z,8.67
2018-04-22T09:37:04.589Z,9.10
2018-04-22T09:39:33.835Z,8.85
2018-04-22T09:42:02.997Z,8.55
2018-04-22T09:44:32.172Z,8.10
2018-04-22T09:47:01.426Z,8.80
2018-04-22T09:49:31.383Z,9.32
2018-04-22T09:52:00.637Z,8.82
2018-04-22T09:54:30.611Z,8.77
2018-04-22T09:56:59.895Z,8.63
2018-04-22T09:59:29.295Z,9.17
2018-04-22T10:01:58.520Z,9.60
2018-04-22T10:04:29.480Z,8.95
2018-04-22T10:06:58.647Z,9.87
2018-04-22T10:09:29.154Z,8.65
2018-04-22T10:11:58.379Z,8.80
2018-04-22T10:14:27.514Z,8.25
2018-04-22T10:16:57.487Z,7.82
2018-04-22T10:19:26.722Z,7.90
2018-04-22T10:21:56.029Z,7.75
2018-04-22T10:24:25.150Z,7.60
2018-04-22T10:26:54.354Z,8.30
2018-04-22T10:29:23.494Z,7.72
2018-04-22T10:31:52.657Z,8.40
2018-04-22T10:34:21.836Z,7.82
2018-04-22T10:36:51.005Z,8.10
2018-04-22T10:39:20.149Z,7.75
2018-04-22T10:41:49.344Z,6.75
2018-04-22T10:44:18.501Z,7.40
2018-04-22T10:46:47.723Z,6.87
2018-04-22T10:49:17.057Z,6.80
2018-04-22T10:51:46.565Z,6.95
2018-04-22T10:54:15.709Z,6.30
2018-04-22T10:56:44.896Z,6.05
2018-04-22T10:59:14.120Z,5.25
2018-04-22T11:01:43.265Z,5.82
2018-04-22T11:04:14.184Z,6.18
2018-04-22T11:06:43.329Z,6.90
2018-04-22T11:09:12.508Z,6.00
2018-04-22T11:11:42.608Z,5.70
2018-04-22T11:14:11.704Z,5.15
2018-04-22T11:16:40.997Z,5.62
2018-04-22T11:19:10.673Z,5.10
2018-04-22T11:21:40.718Z,5.20
2018-04-22T11:24:10.019Z,5.55
2018-04-22T11:26:39.152Z,5.20
2018-04-22T11:29:08.316Z,5.25
2018-04-22T11:31:37.643Z,5.30
2018-04-22T11:34:06.624Z,5.25
2018-04-22T11:36:35.803Z,5.47
2018-04-22T11:39:06.799Z,4.75
2018-04-22T11:41:36.676Z,5.53
2018-04-22T11:44:05.825Z,5.65
2018-04-22T11:46:35.123Z,5.90
2018-04-22T11:49:11.630Z,5.53
2018-04-22T11:51:40.907Z,5.72
2018-04-22T11:54:15.773Z,5.47
2018-04-22T11:56:44.945Z,5.80
2018-04-22T11:59:15.062Z,5.57
2018-04-22T12:01:44.292Z,6.07
2018-04-22T12:04:13.422Z,5.50
2018-04-22T12:06:43.472Z,6.25
2018-04-22T12:09:12.732Z,5.00
2018-04-22T12:11:41.860Z,5.28
2018-04-22T12:14:10.973Z,5.90
2018-04-22T12:16:40.241Z,5.70
2018-04-22T12:19:10.206Z,5.18
2018-04-22T12:21:39.390Z,5.55
2018-04-22T12:24:08.596Z,5.85
2018-04-22T12:26:37.756Z,5.85
2018-04-22T12:29:06.974Z,5.78
2018-04-22T12:31:36.132Z,5.93
2018-04-22T12:34:06.003Z,5.93
2018-04-22T12:36:35.333Z,6.32
2018-04-22T12:39:08.273Z,5.68
2018-04-22T12:41:37.445Z,6.03
2018-04-22T12:44:07.358Z,5.95
2018-04-22T12:46:36.713Z,5.80
2018-04-22T12:49:05.864Z,5.87
2018-04-22T12:51:35.769Z,5.90
2018-04-22T12:54:05.549Z,5.62
2018-04-22T12:56:34.805Z,5.75
2018-04-22T12:59:04.048Z,5.75
2018-04-22T13:01:33.287Z,5.70
2018-04-22T13:04:02.398Z,5.60
2018-04-22T13:06:32.139Z,5.22
2018-04-22T13:09:11.481Z,5.43
2018-04-22T13:11:41.771Z,5.80
2018-04-22T13:14:10.999Z,5.40
2018-04-22T13:16:40.275Z,5.68
2018-04-22T13:19:09.673Z,4.90
2018-04-22T13:21:38.884Z,5.00
2018-04-22T13:24:08.273Z,5.10
2018-04-22T13:26:37.423Z,5.20
2018-04-22T13:29:06.589Z,5.43
2018-04-22T13:31:35.807Z,4.90
2018-04-22T13:34:04.930Z,4.90
2018-04-22T13:36:34.887Z,4.60
2018-04-22T13:39:04.104Z,4.35
2018-04-22T13:41:33.229Z,4.60
2018-04-22T13:44:03.165Z,4.68
2018-04-22T13:46:33.204Z,4.10
2018-04-22T13:49:02.418Z,4.10
2018-04-22T13:51:31.706Z,3.95
2018-04-22T13:54:01.005Z,3.92
2018-04-22T13:56:30.160Z,3.92
2018-04-22T13:59:01.009Z,4.57
2018-04-22T14:01:31.550Z,4.05
2018-04-22T14:04:00.871Z,3.83
2018-04-22T14:06:30.057Z,4.00
2018-04-22T14:08:59.211Z,3.55
2018-04-22T14:11:28.335Z,3.42
2018-04-22T14:13:57.542Z,3.70
2018-04-22T14:16:26.542Z,3.83
2018-04-22T14:18:55.847Z,4.12
2018-04-22T14:21:25.080Z,3.62
2018-04-22T14:23:54.290Z,4.20
2018-04-22T14:26:23.438Z,3.92
2018-04-22T14:28:52.842Z,3.62
2018-04-22T14:31:22.018Z,4.10
2018-04-22T14:33:51.256Z,3.80
2018-04-22T14:36:20.559Z,4.15
2018-04-22T14:38:49.727Z,4.05
2018-04-22T14:41:19.041Z,3.95
2018-04-22T14:44:00.032Z,3.65
2018-04-22T14:46:29.201Z,3.70
2018-04-22T14:49:05.166Z,3.62
2018-04-22T14:51:34.338Z,3.58
2018-04-22T14:54:04.264Z,3.78
2018-04-22T14:56:33.448Z,3.78
2018-04-22T14:59:02.640Z,3.92
2018-04-22T15:01:31.869Z,4.75
2018-04-22T15:04:01.145Z,4.00
2018-04-22T15:06:30.323Z,4.07
2018-04-22T15:08:59.590Z,3.90
2018-04-22T15:11:28.701Z,4.07
2018-04-22T15:13:58.684Z,3.28
2018-04-22T15:16:27.848Z,3.42
2018-04-22T15:18:57.108Z,3.70
2018-04-22T15:21:26.480Z,3.70
2018-04-22T15:23:55.838Z,3.35
2018-04-22T15:26:25.774Z,3.67
2018-04-22T15:28:55.594Z,3.20
2018-04-22T15:31:25.089Z,3.08
2018-04-22T15:33:54.413Z,3.45
2018-04-22T15:36:23.816Z,3.37
2018-04-22T15:38:53.052Z,3.33
2018-04-22T15:41:22.313Z,3.00
2018-04-22T15:43:51.615Z,3.40
2018-04-22T15:46:20.854Z,3.47
2018-04-22T15:48:50.243Z,3.85
2018-04-22T15:51:20.438Z,3.78
2018-04-22T15:53:49.650Z,3.60
2018-04-22T15:56:18.922Z,3.15
2018-04-22T15:58:48.087Z,3.50
2018-04-22T16:01:17.435Z,3.72
2018-04-22T16:03:46.679Z,3.42
2018-04-22T16:06:16.849Z,3.08
2018-04-22T16:08:46.055Z,3.73
2018-04-22T16:11:15.347Z,3.62
2018-04-22T16:13:44.555Z,4.00
2018-04-22T16:16:13.738Z,4.20
2018-04-22T16:18:42.861Z,3.75
2018-04-22T16:21:11.977Z,3.80
2018-04-22T16:23:41.164Z,4.00
2018-04-22T16:26:11.249Z,3.60
2018-04-22T16:28:40.436Z,3.67
2018-04-22T16:31:09.749Z,3.53
2018-04-22T16:33:38.917Z,3.70
2018-04-22T16:36:08.881Z,3.37
2018-04-22T16:38:38.111Z,3.53
2018-04-22T16:41:08.095Z,4.07
2018-04-22T16:43:37.264Z,3.95
2018-04-22T16:46:06.538Z,3.90
2018-04-22T16:48:39.419Z,3.60
2018-04-22T16:51:09.415Z,3.77
2018-04-22T16:53:39.498Z,3.43
2018-04-22T16:56:08.774Z,3.30
2018-04-22T16:58:38.253Z,3.90
2018-04-22T17:01:07.883Z,3.50
2018-04-22T17:03:37.123Z,3.40
2018-04-22T17:06:06.336Z,3.33
2018-04-22T17:08:35.428Z,3.20
2018-04-22T17:11:04.694Z,3.63
2018-04-22T17:13:33.892Z,3.60
2018-04-22T17:16:06.531Z,3.47
2018-04-22T17:18:37.344Z,3.43
2018-04-22T17:21:06.635Z,3.93
2018-04-22T17:23:35.848Z,3.47
2018-04-22T17:26:08.844Z,3.37
2018-04-22T17:28:38.076Z,4.00
2018-04-22T17:31:07.277Z,3.80
2018-04-22T17:33:36.446Z,4.10
2018-04-22T17:36:05.417Z,3.30
2018-04-22T17:38:34.763Z,3.30
2018-04-22T17:41:04.491Z,3.70
2018-04-22T17:43:33.715Z,3.37
2018-04-22T17:46:03.705Z,3.40
2018-04-22T17:48:33.044Z,4.10
2018-04-22T17:51:02.316Z,3.53
2018-04-22T17:53:31.526Z,4.13
2018-04-22T17:56:02.757Z,3.80
2018-04-22T17:58:31.963Z,3.60
2018-04-22T18:01:01.235Z,3.80
2018-04-22T18:03:30.476Z,3.70
2018-04-22T18:05:59.642Z,4.83
2018-04-22T18:08:28.924Z,7.20
2018-04-22T18:10:58.059Z,6.03
2018-04-22T18:13:27.339Z,5.90
2018-04-22T18:15:56.545Z,6.13
2018-04-22T18:18:25.814Z,5.70
2018-04-22T18:20:55.006Z,5.40
2018-04-22T18:23:24.336Z,5.30
2018-04-22T18:25:53.486Z,5.60
2018-04-22T18:28:22.937Z,5.10
2018-04-22T18:30:52.129Z,6.13
2018-04-22T18:33:21.365Z,5.57
2018-04-22T18:35:50.731Z,5.60
2018-04-22T18:38:19.937Z,6.20
2018-04-22T18:40:49.131Z,5.87
2018-04-22T18:43:18.430Z,6.30
2018-04-22T18:45:47.730Z,5.93
2018-04-22T18:48:17.135Z,5.70
2018-04-22T18:50:46.537Z,6.37
2018-04-22T18:53:17.780Z,5.80
2018-04-22T18:55:50.069Z,5.90
2018-04-22T18:58:19.358Z,6.63
2018-04-22T19:00:48.584Z,6.53
2018-04-22T19:03:17.976Z,6.53
2018-04-22T19:05:47.351Z,6.27
2018-04-22T19:08:16.753Z,6.40
2018-04-22T19:10:45.925Z,6.03
2018-04-22T19:13:15.972Z,5.40
2018-04-22T19:15:45.203Z,5.30
2018-04-22T19:18:14.376Z,5.47
2018-04-22T19:20:43.581Z,5.07
2018-04-22T19:23:12.972Z,5.33
2018-04-22T19:25:42.270Z,5.30
2018-04-22T19:28:12.716Z,5.00
2018-04-22T19:30:42.744Z,5.30
2018-04-22T19:33:12.115Z,5.97
2018-04-22T19:35:42.924Z,5.93
2018-04-22T19:38:12.103Z,5.73
2018-04-22T19:40:42.064Z,6.43
2018-04-22T19:43:11.256Z,6.07
2018-04-22T19:45:40.555Z,5.90
2018-04-22T19:48:09.861Z,5.57
2018-04-22T19:50:39.056Z,5.50
2018-04-22T19:53:08.200Z,5.27
2018-04-22T19:55:38.270Z,5.63
2018-04-22T19:58:07.627Z,5.30
2018-04-22T20:00:37.636Z,5.40
2018-04-22T20:03:07.708Z,5.33
2018-04-22T20:05:36.901Z,5.43
2018-04-22T20:08:06.205Z,5.63
2018-04-22T20:10:35.480Z,5.33
2018-04-22T20:13:04.802Z,5.53
2018-04-22T20:15:34.071Z,6.03
2018-04-22T20:18:04.029Z,6.07
2018-04-22T20:20:33.320Z,6.30
2018-04-22T20:23:02.619Z,5.60
2018-04-22T20:25:31.953Z,6.13
2018-04-22T20:28:01.142Z,6.13
2018-04-22T20:30:30.334Z,6.00
2018-04-22T20:32:59.512Z,6.27
2018-04-22T20:35:28.918Z,6.73
2018-04-22T20:37:58.214Z,6.40
2018-04-22T20:40:27.512Z,5.67
2018-04-22T20:42:56.816Z,6.00
2018-04-22T20:45:26.006Z,6.63
2018-04-22T20:47:55.324Z,5.40
2018-04-22T20:50:24.614Z,5.97
2018-04-22T20:52:53.858Z,6.37
2018-04-22T20:55:23.775Z,6.20
2018-04-22T20:57:53.721Z,6.17
2018-04-22T21:00:22.927Z,6.20
2018-04-22T21:02:52.100Z,6.37
2018-04-22T21:05:22.032Z,6.60
2018-04-22T21:07:51.326Z,6.80
2018-04-22T21:10:20.655Z,6.80
2018-04-22T21:12:49.901Z,6.83
2018-04-22T21:15:19.232Z,6.70
2018-04-22T21:17:48.559Z,6.67
2018-04-22T21:20:17.793Z,7.07
2018-04-22T21:22:46.937Z,6.43
2018-04-22T21:25:16.291Z,6.73
2018-04-22T21:27:45.758Z,6.87
2018-04-22T21:30:15.060Z,7.30
2018-04-22T21:32:44.357Z,7.00
2018-04-22T21:35:13.558Z,7.00
2018-04-22T21:37:43.059Z,7.20
2018-04-22T21:40:12.406Z,7.00
2018-04-22T21:42:42.380Z,7.30
2018-04-22T21:45:11.682Z,7.73
2018-04-22T21:47:40.821Z,6.97
2018-04-22T21:50:10.032Z,7.53
2018-04-22T21:52:40.000Z,7.40
2018-04-22T21:55:09.387Z,7.50
2018-04-22T21:57:38.795Z,6.97
2018-04-22T22:00:08.043Z,7.43
2018-04-22T22:02:40.161Z,6.93
2018-04-22T22:05:09.455Z,6.63
2018-04-22T22:07:38.675Z,7.27
2018-04-22T22:10:07.854Z,6.90
2018-04-22T22:12:37.097Z,6.47
2018-04-22T22:15:07.074Z,7.13
2018-04-22T22:17:36.314Z,7.23
2018-04-22T22:20:05.501Z,7.30
2018-04-22T22:22:35.480Z,6.90
2018-04-22T22:25:04.678Z,7.30
2018-04-22T22:27:33.905Z,8.03
2018-04-22T22:30:03.072Z,6.83
2018-04-22T22:32:32.261Z,6.80
2018-04-22T22:35:01.680Z,7.00
2018-04-22T22:37:30.880Z,6.70
2018-04-22T22:40:00.249Z,7.03
2018-04-22T22:42:30.293Z,7.33
2018-04-22T22:44:59.620Z,6.63
2018-04-22T22:47:28.981Z,7.67
2018-04-22T22:49:58.291Z,7.50
2018-04-22T22:52:27.694Z,6.87
2018-04-22T22:54:56.860Z,7.30
2018-04-22T22:57:26.081Z,7.47
2018-04-22T22:59:55.286Z,7.07
2018-04-22T23:02:24.591Z,7.47
2018-04-22T23:04:53.991Z,7.13
2018-04-22T23:07:23.166Z,7.33
2018-04-22T23:09:52.385Z,6.47
2018-04-22T23:12:21.579Z,7.70
2018-04-22T23:14:50.800Z,7.30
2018-04-22T23:17:20.170Z,7.37
2018-04-22T23:19:49.410Z,7.40
2018-04-22T23:22:18.584Z,7.33
2018-04-22T23:24:47.755Z,7.30
2018-04-22T23:27:16.966Z,7.37
2018-04-22T23:29:47.044Z,7.13
2018-04-22T23:32:17.063Z,7.03
2018-04-22T23:34:47.042Z,7.27
2018-04-22T23:37:16.227Z,6.90
2018-04-22T23:39:45.466Z,8.27
2018-04-22T23:42:15.492Z,7.87
2018-04-22T23:44:45.458Z,7.70
2018-04-22T23:47:14.673Z,7.20
2018-04-22T23:49:43.810Z,7.20
2018-04-22T23:52:13.163Z,7.27
2018-04-22T23:54:42.330Z,7.30
2018-04-22T23:57:11.572Z,7.23
2018-04-22T23:59:40.802Z,7.70
